Time;durP1;ratioP1;P1;durP2;ratioP2;P2;SDS_P1;SDS_P2;PMS_P1;PMS_P2;Temp;Humidity;BMP_temperature;BMP_pressure;BME280_temperature;BME280_humidity;BME280_pressure;Samples;Min_cycle;Max_cycle;Signal;HPM_P1;HPM_P2
2021/04/01 00:00:38;;;;;;;15.30;8.80;;;7.70;99.90;;;;;;4158267;28;20049;-63
2021/04/01 00:02:39;;;;;;;17.57;9.87;;;7.60;99.90;;;;;;4156906;28;20473;-60
2021/04/01 00:04:42;;;;;;;15.93;9.63;;;7.60;99.90;;;;;;4158089;28;20083;-68
2021/04/01 00:06:44;;;;;;;15.17;8.50;;;7.60;99.90;;;;;;4157759;28;20083;-66
2021/04/01 00:08:45;;;;;;;16.97;9.60;;;7.60;99.90;;;;;;4157750;28;20037;-58
2021/04/01 00:10:46;;;;;;;14.37;9.73;;;7.60;99.90;;;;;;4157408;28;20026;-61
2021/04/01 00:12:48;;;;;;;17.83;9.17;;;7.60;99.90;;;;;;4157427;28;20065;-61
2021/04/01 00:14:49;;;;;;;15.90;8.40;;;7.60;99.90;;;;;;4157244;28;20017;-66
2021/04/01 00:16:51;;;;;;;13.10;8.53;;;7.60;99.90;;;;;;4156643;28;20091;-62
2021/04/01 00:18:52;;;;;;;22.20;9.13;;;7.60;99.90;;;;;;4158160;28;20038;-65
2021/04/01 00:20:53;;;;;;;16.83;8.93;;;7.50;99.90;;;;;;4157154;28;20061;-62
2021/04/01 00:22:54;;;;;;;15.63;8.30;;;7.60;99.90;;;;;;4158270;28;21500;-61
2021/04/01 00:24:55;;;;;;;16.23;9.07;;;7.50;99.90;;;;;;4157306;28;20564;-61
2021/04/01 00:26:57;;;;;;;16.53;9.67;;;7.50;99.90;;;;;;4158372;28;20543;-60
2021/04/01 00:28:58;;;;;;;14.00;8.33;;;7.50;99.90;;;;;;4155929;28;20490;-61
2021/04/01 00:30:59;;;;;;;15.03;8.47;;;7.50;99.90;;;;;;4157731;28;20100;-61
2021/04/01 00:33:00;;;;;;;17.20;9.17;;;7.50;99.90;;;;;;4156872;28;20348;-65
2021/04/01 00:35:01;;;;;;;18.60;9.90;;;7.40;99.90;;;;;;4158282;28;20049;-61
2021/04/01 00:37:03;;;;;;;16.73;9.87;;;7.50;99.90;;;;;;4156938;28;20848;-62
2021/04/01 00:39:04;;;;;;;17.90;10.50;;;7.40;99.90;;;;;;4157067;28;20026;-69
2021/04/01 00:41:06;;;;;;;20.10;11.20;;;7.40;99.90;;;;;;4156715;28;21112;-63
2021/04/01 00:43:07;;;;;;;17.60;10.47;;;7.30;99.90;;;;;;4156797;28;20022;-63
2021/04/01 00:45:10;;;;;;;22.13;11.80;;;7.30;99.90;;;;;;4157327;28;20039;-62
2021/04/01 00:47:11;;;;;;;22.23;11.93;;;7.30;99.90;;;;;;4155676;28;20049;-61
2021/04/01 00:49:14;;;;;;;22.83;12.57;;;7.20;99.90;;;;;;4156751;28;20123;-61
2021/04/01 00:51:16;;;;;;;16.63;11.10;;;7.20;99.90;;;;;;4156262;28;20030;-59
2021/04/01 00:53:17;;;;;;;13.40;8.77;;;7.10;99.90;;;;;;4157811;28;20042;-63
2021/04/01 00:55:18;;;;;;;14.03;8.37;;;7.10;99.90;;;;;;4156407;28;20091;-62
2021/04/01 00:57:19;;;;;;;16.13;9.20;;;7.10;99.90;;;;;;4158556;28;20029;-61
2021/04/01 00:59:20;;;;;;;15.53;8.67;;;7.10;99.90;;;;;;4156525;28;20037;-62
2021/04/01 01:03:23;;;;;;;19.90;10.50;;;7.10;99.90;;;;;;4156215;28;20814;-65
2021/04/01 01:05:26;;;;;;;18.57;10.27;;;7.10;99.90;;;;;;4157130;28;20087;-61
2021/04/01 01:07:27;;;;;;;17.53;9.90;;;7.00;99.90;;;;;;4156948;28;20026;-64
2021/04/01 01:09:29;;;;;;;13.03;7.50;;;7.00;99.90;;;;;;4157211;28;20036;-69
2021/04/01 01:11:30;;;;;;;14.63;7.40;;;7.00;99.90;;;;;;4156171;28;20063;-60
2021/04/01 01:13:33;;;;;;;13.97;8.23;;;7.00;99.90;;;;;;4156751;28;20075;-61
2021/04/01 01:15:34;;;;;;;14.90;8.13;;;7.00;99.90;;;;;;4156851;28;21019;-60
2021/04/01 01:17:36;;;;;;;15.10;8.70;;;7.00;99.90;;;;;;4156534;28;20087;-62
2021/04/01 01:19:39;;;;;;;14.60;8.37;;;7.00;99.90;;;;;;4157028;28;20075;-62
2021/04/01 01:21:40;;;;;;;12.17;7.40;;;7.00;99.90;;;;;;4156291;28;20049;-60
2021/04/01 01:23:42;;;;;;;15.77;8.17;;;7.00;99.90;;;;;;4157751;28;20026;-64
2021/04/01 01:25:43;;;;;;;19.40;10.53;;;6.90;99.90;;;;;;4156420;28;20068;-64
2021/04/01 01:27:44;;;;;;;20.57;10.63;;;6.90;99.90;;;;;;4160261;28;20429;-62
2021/04/01 01:29:49;;;;;;;16.77;9.27;;;6.90;99.90;;;;;;4158625;28;20099;-61
2021/04/01 01:31:50;;;;;;;18.20;10.13;;;6.80;99.90;;;;;;4160284;28;20571;-61
2021/04/01 01:33:55;;;;;;;21.17;10.00;;;6.80;99.90;;;;;;4159002;28;20022;-61
2021/04/01 01:35:57;;;;;;;18.33;9.77;;;6.80;99.90;;;;;;4160765;28;20025;-62
2021/04/01 01:38:01;;;;;;;21.67;10.30;;;6.80;99.90;;;;;;4159642;28;20432;-62
2021/04/01 01:40:02;;;;;;;18.13;9.40;;;6.70;99.90;;;;;;4160781;28;20478;-62
2021/04/01 01:42:04;;;;;;;18.83;10.37;;;6.70;99.90;;;;;;4162458;28;20087;-60
2021/04/01 01:44:06;;;;;;;16.93;9.63;;;6.70;99.90;;;;;;4160188;28;20262;-63
2021/04/01 01:46:07;;;;;;;19.20;9.83;;;6.70;99.90;;;;;;4159837;28;20367;-61
2021/04/01 01:48:09;;;;;;;16.90;8.80;;;6.60;99.90;;;;;;4159738;28;20341;-62
2021/04/01 01:50:14;;;;;;;18.87;8.80;;;6.60;99.90;;;;;;4160075;28;20042;-55
2021/04/01 01:52:15;;;;;;;18.60;10.43;;;6.50;99.90;;;;;;4159742;28;20454;-61
2021/04/01 01:54:17;;;;;;;18.03;11.10;;;6.50;99.90;;;;;;4159434;28;20026;-60
2021/04/01 01:56:20;;;;;;;19.63;10.17;;;6.50;99.90;;;;;;4159352;28;20448;-60
2021/04/01 01:58:22;;;;;;;15.87;9.93;;;6.50;99.90;;;;;;4158806;28;20274;-58
2021/04/01 02:00:34;;;;;;;17.90;9.17;;;6.50;99.90;;;;;;4158994;28;20047;-61
2021/04/01 02:02:36;;;;;;;14.87;7.87;;;6.50;99.90;;;;;;4160262;28;20029;-62
2021/04/01 02:04:37;;;;;;;13.57;7.80;;;6.50;99.90;;;;;;4159098;28;20271;-64
2021/04/01 02:06:38;;;;;;;13.87;7.87;;;6.50;99.90;;;;;;4159018;28;20029;-61
2021/04/01 02:08:39;;;;;;;13.47;8.03;;;6.60;99.90;;;;;;4158913;28;20279;-62
2021/04/01 02:10:49;;;;;;;13.30;7.83;;;6.60;99.90;;;;;;4159971;28;20070;-56
2021/04/01 02:12:52;;;;;;;17.00;8.25;;;6.60;99.90;;;;;;4157089;28;20084;-60
2021/04/01 02:14:53;;;;;;;13.87;8.47;;;6.50;99.90;;;;;;4160326;28;20033;-66
2021/04/01 02:16:55;;;;;;;12.73;7.20;;;6.50;99.90;;;;;;4159047;28;20671;-61
2021/04/01 02:18:56;;;;;;;13.60;8.50;;;6.50;99.90;;;;;;4159821;28;20481;-61
2021/04/01 02:21:00;;;;;;;14.87;8.10;;;6.50;99.90;;;;;;4158209;28;20294;-61
2021/04/01 02:23:01;;;;;;;12.90;8.50;;;6.50;99.90;;;;;;4160157;28;20275;-61
2021/04/01 02:25:03;;;;;;;15.00;8.13;;;6.50;99.90;;;;;;4158882;28;20472;-62
2021/04/01 02:27:05;;;;;;;12.97;6.83;;;6.50;99.90;;;;;;4159219;28;20083;-62
2021/04/01 02:29:06;;;;;;;14.10;7.77;;;6.50;99.90;;;;;;4159281;28;20266;-62
2021/04/01 02:31:09;;;;;;;12.57;7.27;;;6.50;99.90;;;;;;4158703;28;20045;-62
2021/04/01 02:33:11;;;;;;;12.20;6.60;;;6.50;99.90;;;;;;4144514;28;20030;-62
2021/04/01 02:35:13;;;;;;;11.83;6.43;;;6.50;99.90;;;;;;4158418;28;20029;-63
2021/04/01 02:37:15;;;;;;;12.63;7.33;;;6.50;99.90;;;;;;4159622;28;20068;-60
2021/04/01 02:39:16;;;;;;;14.10;7.27;;;6.50;99.90;;;;;;4157599;28;20037;-62
2021/04/01 02:41:17;;;;;;;11.53;7.37;;;6.40;99.90;;;;;;4159629;28;20099;-61
2021/04/01 02:43:39;;;;;;;13.67;7.03;;;6.40;99.90;;;;;;4156766;28;20111;-61
2021/04/01 02:45:40;;;;;;;12.07;6.63;;;6.40;99.90;;;;;;4143222;28;20045;-65
2021/04/01 02:47:41;;;;;;;14.07;6.93;;;6.40;99.90;;;;;;4142417;28;20030;-61
2021/04/01 02:49:42;;;;;;;14.30;6.70;;;6.40;99.90;;;;;;4143631;28;20405;-61
2021/04/01 02:51:43;;;;;;;12.43;7.07;;;6.40;99.90;;;;;;4157168;28;20282;-60
2021/04/01 02:53:44;;;;;;;17.80;7.20;;;6.40;99.90;;;;;;4158280;28;20813;-60
2021/04/01 02:55:45;;;;;;;12.17;7.13;;;6.40;99.90;;;;;;4158540;28;20063;-60
2021/04/01 02:57:47;;;;;;;10.93;6.87;;;6.40;99.90;;;;;;4159292;28;20360;-62
2021/04/01 02:59:48;;;;;;;14.60;7.50;;;6.40;99.90;;;;;;4158251;28;20558;-66
2021/04/01 03:01:50;;;;;;;11.50;6.50;;;6.40;99.90;;;;;;4159040;28;20103;-61
2021/04/01 03:03:53;;;;;;;13.47;7.07;;;6.40;99.90;;;;;;4157952;28;20092;-64
2021/04/01 03:05:56;;;;;;;14.83;7.20;;;6.30;99.90;;;;;;4158415;28;20029;-60
2021/04/01 03:07:57;;;;;;;13.77;6.83;;;6.30;99.90;;;;;;4157598;28;20274;-61
2021/04/01 03:09:58;;;;;;;12.63;7.10;;;6.30;99.90;;;;;;4157793;28;20571;-62
2021/04/01 03:12:00;;;;;;;14.43;7.67;;;6.30;99.90;;;;;;4158451;28;20120;-62
2021/04/01 03:14:03;;;;;;;14.60;6.80;;;6.40;99.90;;;;;;4157611;28;20033;-62
2021/04/01 03:16:04;;;;;;;14.53;8.03;;;6.30;99.90;;;;;;4158951;28;20337;-64
2021/04/01 03:18:06;;;;;;;11.67;7.43;;;6.30;99.90;;;;;;4158576;28;20320;-65
2021/04/01 03:20:08;;;;;;;14.37;8.23;;;6.30;99.90;;;;;;4160353;28;20037;-61
2021/04/01 03:22:10;;;;;;;12.47;7.37;;;6.30;99.90;;;;;;4157874;28;20344;-61
2021/04/01 03:24:12;;;;;;;15.13;8.13;;;6.30;99.90;;;;;;4158619;28;20283;-63
2021/04/01 03:26:13;;;;;;;15.03;7.67;;;6.30;99.90;;;;;;4157245;28;20333;-62
2021/04/01 03:28:16;;;;;;;16.23;8.90;;;6.20;99.90;;;;;;4158733;28;20336;-61
2021/04/01 03:30:17;;;;;;;14.70;7.60;;;6.20;99.90;;;;;;4157509;28;20670;-66
2021/04/01 03:32:18;;;;;;;14.33;8.40;;;6.20;99.90;;;;;;4158503;28;20348;-65
2021/04/01 03:34:19;;;;;;;12.90;7.93;;;6.10;99.90;;;;;;4157553;28;20340;-62
2021/04/01 03:36:20;;;;;;;15.03;7.50;;;6.10;99.90;;;;;;4156424;28;20275;-61
2021/04/01 03:38:22;;;;;;;14.30;7.70;;;6.10;99.90;;;;;;4157947;28;20207;-62
2021/04/01 03:40:24;;;;;;;14.70;7.80;;;6.10;99.90;;;;;;4158167;28;20265;-63
2021/04/01 03:42:25;;;;;;;16.53;7.77;;;6.10;99.90;;;;;;4157861;28;20333;-62
2021/04/01 03:44:26;;;;;;;15.33;8.07;;;6.10;99.90;;;;;;4156998;28;20029;-64
2021/04/01 03:46:27;;;;;;;12.30;6.93;;;6.10;99.90;;;;;;4158553;28;20259;-59
2021/04/01 03:48:28;;;;;;;12.37;7.60;;;6.10;99.90;;;;;;4157643;28;20329;-62
2021/04/01 03:50:30;;;;;;;15.37;7.33;;;6.10;99.90;;;;;;4158222;28;20247;-62
2021/04/01 03:52:31;;;;;;;13.13;7.70;;;6.10;99.90;;;;;;4156948;28;20324;-62
2021/04/01 03:54:32;;;;;;;12.43;6.93;;;6.10;99.90;;;;;;4158054;28;20735;-61
2021/04/01 03:56:33;;;;;;;16.47;7.07;;;6.10;99.90;;;;;;4157204;28;20275;-62
2021/04/01 04:03:33;;;;;;;14.23;7.27;;;6.10;99.90;;;;;;4157857;28;20336;-62
2021/04/01 04:14:28;;;;;;;16.73;9.00;;;6.10;99.90;;;;;;4156390;28;21058;-61
2021/04/01 04:16:29;;;;;;;12.03;7.77;;;6.10;99.90;;;;;;4141568;28;20354;-60
2021/04/01 04:18:30;;;;;;;19.63;10.57;;;6.00;99.90;;;;;;4149003;28;20348;-60
2021/04/01 04:20:31;;;;;;;23.70;13.37;;;6.00;99.90;;;;;;4158320;28;20341;-63
2021/04/01 04:22:34;;;;;;;34.43;14.20;;;6.00;99.90;;;;;;4153586;28;20298;-63
2021/04/01 04:24:36;;;;;;;27.77;14.67;;;5.90;99.90;;;;;;4157437;28;21359;-64
2021/04/01 04:26:37;;;;;;;39.10;15.97;;;5.90;99.90;;;;;;4158628;28;20278;-60
2021/04/01 04:28:40;;;;;;;32.83;15.63;;;5.80;99.90;;;;;;4157824;28;20266;-60
2021/04/01 04:30:41;;;;;;;24.10;13.20;;;5.80;99.90;;;;;;4155965;28;20731;-62
2021/04/01 04:32:42;;;;;;;34.43;14.77;;;5.80;99.90;;;;;;4156568;28;20776;-59
2021/04/01 04:34:43;;;;;;;33.10;16.33;;;5.80;99.90;;;;;;4156315;28;20281;-62
2021/04/01 04:36:44;;;;;;;33.90;15.47;;;5.80;99.90;;;;;;4156744;28;20802;-61
2021/04/01 04:38:45;;;;;;;32.37;16.73;;;5.80;99.90;;;;;;4157703;28;20361;-62
2021/04/01 04:40:47;;;;;;;36.07;16.77;;;5.90;99.90;;;;;;4156372;28;20293;-60
2021/04/01 04:42:48;;;;;;;42.63;19.00;;;5.90;99.90;;;;;;4157633;28;20773;-60
2021/04/01 04:44:49;;;;;;;36.50;19.03;;;5.90;99.90;;;;;;4158245;28;20324;-59
2021/04/01 04:46:50;;;;;;;48.13;19.57;;;5.90;99.90;;;;;;4163601;28;20279;-59
2021/04/01 04:48:52;;;;;;;32.30;16.67;;;5.90;99.90;;;;;;4156571;28;20274;-63
2021/04/01 04:50:53;;;;;;;45.70;19.93;;;6.00;99.90;;;;;;4157274;28;20316;-59
2021/04/01 04:52:54;;;;;;;42.10;18.03;;;6.00;99.90;;;;;;4155478;28;20335;-66
2021/04/01 04:54:55;;;;;;;46.97;19.90;;;6.10;99.90;;;;;;4157508;28;20286;-60
2021/04/01 04:57:00;;;;;;;44.80;20.77;;;6.10;99.90;;;;;;4155996;28;20806;-57
2021/04/01 04:59:28;;;;;;;42.83;18.83;;;6.10;99.90;;;;;;4157297;28;20375;-63
2021/04/01 05:06:06;;;;;;;43.77;20.27;;;6.50;99.90;;;;;;4154575;28;20345;-59
2021/04/01 05:08:07;;;;;;;48.50;19.93;;;6.90;99.90;;;;;;4156637;28;20666;-62
2021/04/01 05:10:08;;;;;;;45.53;19.07;;;7.40;99.90;;;;;;4155347;28;20033;-55
2021/04/01 05:12:11;;;;;;;41.27;21.00;;;7.90;99.90;;;;;;4155550;28;20030;-58
2021/04/01 05:14:12;;;;;;;47.17;20.67;;;8.50;99.90;;;;;;4155951;28;20079;-61
2021/04/01 05:16:13;;;;;;;43.77;21.30;;;9.20;99.90;;;;;;4157011;28;20573;-59
2021/04/01 05:20:23;;;;;;;46.90;22.90;;;10.70;99.90;;;;;;4156740;28;20033;-60
2021/04/01 05:22:46;;;;;;;44.70;20.97;;;11.30;99.90;;;;;;4155799;28;20041;-61
2021/04/01 05:24:47;;;;;;;46.10;23.13;;;11.70;99.90;;;;;;4157016;28;20366;-60
2021/04/01 05:28:53;;;;;;;37.00;19.50;;;12.20;99.90;;;;;;4156352;28;20427;-60
2021/04/01 05:30:55;;;;;;;46.33;20.40;;;12.20;99.90;;;;;;4156148;28;20014;-59
2021/04/01 05:32:56;;;;;;;42.53;21.60;;;12.40;99.90;;;;;;4156041;28;20152;-61
2021/04/01 05:34:59;;;;;;;40.93;21.30;;;12.90;99.90;;;;;;4156344;28;20113;-59
2021/04/01 05:37:02;;;;;;;49.57;22.27;;;13.40;99.90;;;;;;4155457;28;20489;-60
2021/04/01 05:39:05;;;;;;;51.70;19.30;;;13.90;99.90;;;;;;4157320;28;20101;-61
2021/04/01 05:41:10;;;;;;;41.53;17.97;;;14.20;99.90;;;;;;4155164;28;20026;-61
2021/04/01 05:43:19;;;;;;;43.07;16.93;;;14.80;98.80;;;;;;4156998;28;20103;-59
2021/04/01 05:45:35;;;;;;;29.63;15.17;;;15.20;97.70;;;;;;4155420;28;20017;-58
2021/04/01 05:47:45;;;;;;;30.30;15.83;;;15.20;96.30;;;;;;4156721;28;20072;-60
2021/04/01 06:05:20;;;;;;;36.47;17.43;;;13.40;96.20;;;;;;4156329;28;20029;-64
2021/04/01 06:07:26;;;;;;;45.47;18.00;;;13.50;95.90;;;;;;4155668;28;20030;-61
2021/04/01 06:09:34;;;;;;;39.80;18.30;;;13.60;95.80;;;;;;4156855;28;20017;-60
2021/04/01 06:11:35;;;;;;;46.30;18.60;;;14.10;94.70;;;;;;4155407;28;20064;-62
2021/04/01 06:13:51;;;;;;;37.10;17.97;;;14.60;93.90;;;;;;4158680;28;20034;-62
2021/04/01 06:15:53;;;;;;;36.37;17.00;;;15.10;92.60;;;;;;4158288;28;20043;-62
2021/04/01 06:18:00;;;;;;;43.33;20.53;;;15.60;91.70;;;;;;4159544;28;20087;-67
2021/04/01 06:20:06;;;;;;;54.67;26.53;;;16.20;90.30;;;;;;4158842;28;20448;-66
2021/04/01 06:22:08;;;;;;;185.03;95.17;;;16.80;88.30;;;;;;4159945;28;20037;-62
2021/04/01 06:24:30;;;;;;;71.33;36.47;;;17.30;85.00;;;;;;4158614;28;20115;-62
2021/04/01 06:26:33;;;;;;;75.77;38.17;;;17.70;80.30;;;;;;4160073;28;20045;-61
2021/04/01 06:28:44;;;;;;;33.03;17.57;;;18.00;81.10;;;;;;4158173;28;20037;-62
2021/04/01 06:30:52;;;;;;;;;;;18.10;79.10;;;;;;4160004;28;21074;-61
2021/04/01 06:33:04;;;;;;;37.15;18.50;;;18.30;73.70;;;;;;4157799;28;19917;-60
2021/04/01 06:35:52;;;;;;;22.02;11.82;;;18.40;76.60;;;;;;4159262;28;20029;-62
2021/04/01 06:38:08;;;;;;;12.90;7.80;;;18.70;75.30;;;;;;4158086;28;20037;-62
2021/04/01 06:40:10;;;;;;;11.32;6.07;;;19.00;74.10;;;;;;4158437;28;20103;-61
2021/04/01 06:42:27;;;;;;;37.05;16.00;;;19.10;73.30;;;;;;4158042;28;20049;-59
2021/04/01 06:44:53;;;;;;;45.80;19.20;;;18.80;70.80;;;;;;4146024;28;20049;-61
2021/04/01 06:47:09;;;;;;;47.42;20.27;;;17.80;73.60;;;;;;4155391;28;20049;-64
2021/04/01 06:51:47;;;;;;;46.63;19.15;;;15.70;78.80;;;;;;4159343;28;20033;-64
2021/04/01 07:01:36;;;;;;;39.27;18.40;;;14.40;86.40;;;;;;4154143;28;20470;-63
2021/04/01 07:03:42;;;;;;;44.80;18.43;;;14.20;87.40;;;;;;4144281;28;20042;-63
2021/04/01 07:08:04;;;;;;;36.90;18.00;;;14.20;88.90;;;;;;4157653;28;20417;-62
2021/04/01 07:10:23;;;;;;;34.07;16.63;;;14.20;89.30;;;;;;4159276;28;20535;-60
2021/04/01 07:12:29;;;;;;;37.00;17.07;;;14.30;89.10;;;;;;4158461;28;20025;-60
2021/04/01 07:14:35;;;;;;;35.63;16.63;;;14.40;89.30;;;;;;4157528;28;20078;-62
2021/04/01 07:19:21;;;;;;;34.43;15.83;;;15.50;85.80;;;;;;4158555;28;20041;-63
2021/04/01 07:46:49;;;;;;;28.77;13.10;;;15.70;86.20;;;;;;4173843;28;20044;-61
2021/04/01 07:49:12;;;;;;;26.40;13.37;;;15.60;86.80;;;;;;4174476;28;20036;-59
2021/04/01 07:53:53;;;;;;;22.47;11.30;;;15.60;87.90;;;;;;4173986;28;20091;-62
2021/04/01 08:02:59;;;;;;;15.77;8.10;;;16.30;84.30;;;;;;4140221;28;20096;-58
2021/04/01 08:05:01;;;;;;;19.67;8.00;;;16.20;84.90;;;;;;4142190;28;20030;-61
2021/04/01 08:07:22;;;;;;;12.45;7.25;;;16.10;85.50;;;;;;4141133;28;20417;-60
2021/04/01 08:09:25;;;;;;;;;;;16.00;86.00;;;;;;4142437;28;20022;-61
2021/04/01 08:11:41;;;;;;;11.38;5.53;;;15.70;86.60;;;;;;4140516;28;19914;-60
2021/04/01 08:13:50;;;;;;;11.13;6.03;;;15.80;87.30;;;;;;4152254;28;20092;-59
2021/04/01 08:15:56;;;;;;;9.68;4.78;;;15.80;87.30;;;;;;4157247;28;20568;-61
2021/04/01 08:18:34;;;;;;;14.77;4.67;;;15.80;87.60;;;;;;4158445;28;20499;-61
2021/04/01 08:20:31;;;;;;;8.83;4.03;;;15.80;88.10;;;;;;4139317;28;20038;-59
2021/04/01 08:22:35;;;;;;;11.10;5.07;;;15.80;88.50;;;;;;4140169;28;20487;-61
2021/04/01 08:24:46;;;;;;;11.25;5.38;;;15.90;88.80;;;;;;4147510;28;20151;-61
2021/04/01 08:27:42;;;;;;;8.07;4.75;;;16.10;88.60;;;;;;4158152;28;20458;-60
2021/04/01 08:36:20;;;;;;;12.80;4.93;;;16.10;91.10;;;;;;4138522;28;20415;-64
2021/04/01 08:38:22;;;;;;;10.57;5.25;;;16.00;91.20;;;;;;4152454;28;20042;-61
2021/04/01 08:40:23;;;;;;;10.02;5.35;;;16.10;91.30;;;;;;4158695;28;20083;-65
2021/04/01 08:42:27;;;;;;;23.52;7.45;;;16.10;91.30;;;;;;4156683;28;20041;-64
2021/04/01 08:44:48;;;;;;;26.27;6.60;;;16.30;91.10;;;;;;4154233;28;20045;-68
2021/04/01 08:47:17;;;;;;;10.43;4.03;;;16.30;91.30;;;;;;4138229;28;20034;-61
2021/04/01 08:49:31;;;;;;;10.15;6.22;;;16.60;90.80;;;;;;4141462;28;20041;-61
2021/04/01 08:51:51;;;;;;;9.65;4.75;;;16.80;90.50;;;;;;4140418;28;20029;-63
2021/04/01 08:54:09;;;;;;;10.70;5.55;;;16.90;90.40;;;;;;4141087;28;20532;-59
2021/04/01 08:56:29;;;;;;;9.25;4.95;;;17.20;89.80;;;;;;4153449;28;20099;-59
2021/04/01 08:59:01;;;;;;;14.25;5.72;;;17.30;89.30;;;;;;4156931;28;20083;-61
2021/04/01 09:01:14;;;;;;;10.73;5.10;;;17.60;89.10;;;;;;4157104;28;20428;-59
2021/04/01 09:03:20;;;;;;;13.18;5.60;;;17.80;87.90;;;;;;4158572;28;20041;-61
2021/04/01 09:05:22;;;;;;;11.68;6.65;;;17.70;88.10;;;;;;4172696;28;20033;-61
2021/04/01 09:07:25;;;;;;;15.88;6.70;;;17.50;88.50;;;;;;4172453;28;20112;-60
2021/04/01 09:09:31;;;;;;;10.18;5.60;;;17.60;88.70;;;;;;4169575;28;20445;-58
2021/04/01 09:11:55;;;;;;;13.93;6.13;;;17.60;88.90;;;;;;4156165;28;20806;-60
2021/04/01 09:13:56;;;;;;;14.70;5.53;;;17.70;88.80;;;;;;4156383;28;20055;-60
2021/04/01 09:18:06;;;;;;;14.07;5.55;;;17.30;89.00;;;;;;4156002;28;20075;-59
2021/04/01 09:20:26;;;;;;;13.60;5.25;;;17.20;89.60;;;;;;4156014;28;20095;-59
2021/04/01 09:22:30;;;;;;;10.18;5.03;;;17.30;88.50;;;;;;4155761;28;20147;-58
2021/04/01 09:24:33;;;;;;;9.15;4.90;;;17.50;87.90;;;;;;4155703;28;20037;-56
2021/04/01 09:26:34;;;;;;;10.88;4.90;;;17.70;87.20;;;;;;4138232;28;20046;-53
2021/04/01 09:28:38;;;;;;;6.78;4.40;;;18.10;86.80;;;;;;4156271;28;20103;-59
2021/04/01 09:30:42;;;;;;;11.50;5.07;;;18.50;85.70;;;;;;4155273;28;20087;-58
2021/04/01 09:32:47;;;;;;;10.48;4.70;;;19.10;83.90;;;;;;4156350;28;20053;-59
2021/04/01 09:34:48;;;;;;;14.20;6.10;;;19.30;82.40;;;;;;4155712;28;20034;-58
2021/04/01 09:36:50;;;;;;;16.30;9.10;;;19.50;81.50;;;;;;4157406;28;20045;-59
2021/04/01 09:38:53;;;;;;;14.50;5.28;;;19.50;80.40;;;;;;4156182;28;20101;-57
2021/04/01 09:40:54;;;;;;;12.93;5.25;;;19.40;79.30;;;;;;4157230;28;20017;-56
2021/04/01 09:43:12;;;;;;;9.15;6.00;;;19.10;79.20;;;;;;4155881;28;20053;-56
2021/04/01 09:45:14;;;;;;;11.90;5.32;;;18.80;78.30;;;;;;4156393;28;20099;-59
2021/04/01 09:47:34;;;;;;;10.57;4.18;;;18.60;79.60;;;;;;4155619;28;20029;-63
2021/04/01 09:49:50;;;;;;;8.40;3.73;;;18.70;79.50;;;;;;4159883;28;20022;-58
2021/04/01 09:51:54;;;;;;;8.27;4.10;;;18.70;76.10;;;;;;4158825;28;20896;-58
2021/04/01 09:53:55;;;;;;;7.40;3.38;;;18.50;77.50;;;;;;4159722;28;20045;-59
2021/04/01 09:55:58;;;;;;;5.93;4.00;;;18.50;77.40;;;;;;4158413;28;20076;-64
2021/04/01 09:58:02;;;;;;;9.02;3.92;;;18.60;77.10;;;;;;4159279;28;20106;-59
2021/04/01 10:00:48;;;;;;;13.98;6.90;;;18.70;76.30;;;;;;4158205;28;20029;-64
2021/04/01 10:03:03;;;;;;;8.98;4.47;;;18.80;75.30;;;;;;4158073;28;20108;-57
2021/04/01 10:05:06;;;;;;;5.38;4.20;;;19.10;74.80;;;;;;4157922;28;20067;-60
2021/04/01 10:07:16;;;;;;;8.02;4.93;;;19.40;74.80;;;;;;4157336;28;20041;-60
2021/04/01 10:09:22;;;;;;;9.52;4.78;;;19.60;73.90;;;;;;4158879;28;20045;-57
2021/04/01 10:11:28;;;;;;;8.93;4.80;;;19.70;73.40;;;;;;4158747;28;20111;-59
2021/04/01 10:13:32;;;;;;;8.57;4.63;;;19.90;72.60;;;;;;4158082;28;20049;-59
2021/04/01 10:15:33;;;;;;;6.90;3.95;;;19.90;72.50;;;;;;4159142;28;20060;-59
2021/04/01 10:17:36;;;;;;;7.60;4.53;;;19.90;72.00;;;;;;4157491;28;20131;-60
2021/04/01 10:19:48;;;;;;;7.75;3.67;;;19.70;71.70;;;;;;4159123;28;20037;-60
2021/04/01 10:21:50;;;;;;;7.13;4.03;;;19.40;71.50;;;;;;4157623;28;20156;-60
2021/04/01 10:23:58;;;;;;;9.25;5.15;;;19.20;72.50;;;;;;4159535;28;20099;-57
2021/04/01 10:26:07;;;;;;;8.10;5.13;;;19.20;72.70;;;;;;4158209;28;20029;-57
2021/04/01 10:28:25;;;;;;;6.85;4.75;;;19.10;72.80;;;;;;4159145;28;20490;-60
2021/04/01 10:30:32;;;;;;;7.80;4.90;;;19.10;72.20;;;;;;4157802;28;20460;-60
2021/04/01 10:32:50;;;;;;;7.50;4.72;;;19.10;72.40;;;;;;4155646;28;20041;-65
2021/04/01 10:34:58;;;;;;;8.80;4.68;;;19.10;72.90;;;;;;4154791;28;20083;-59
2021/04/01 10:37:03;;;;;;;8.73;5.05;;;19.20;72.60;;;;;;4158294;28;20037;-58
2021/04/01 10:39:10;;;;;;;11.32;5.05;;;19.30;72.50;;;;;;4158159;28;20068;-59
2021/04/01 10:41:19;;;;;;;10.80;5.47;;;19.40;72.10;;;;;;4159263;28;20037;-60
2021/04/01 10:43:20;;;;;;;8.63;5.05;;;19.60;71.70;;;;;;4158014;28;20104;-60
2021/04/01 10:45:23;;;;;;;11.82;5.47;;;19.60;71.80;;;;;;4159374;28;20064;-58
2021/04/01 10:47:49;;;;;;;11.95;5.22;;;19.80;71.80;;;;;;4157415;28;20087;-57
2021/04/01 10:49:51;;;;;;;8.93;4.05;;;19.90;70.70;;;;;;4165419;28;20091;-59
2021/04/01 10:51:57;;;;;;;12.38;5.78;;;19.30;71.20;;;;;;4174197;28;20106;-61
2021/04/01 10:53:58;;;;;;;8.80;4.80;;;19.00;72.20;;;;;;4175276;28;20110;-56
2021/04/01 10:56:07;;;;;;;8.35;4.90;;;18.80;72.80;;;;;;4167729;28;20099;-60
2021/04/01 10:58:10;;;;;;;9.55;5.15;;;18.60;73.10;;;;;;4159400;28;20033;-58
2021/04/01 11:00:13;;;;;;;10.70;4.70;;;18.60;73.60;;;;;;4156813;28;20038;-59
2021/04/01 11:02:20;;;;;;;8.02;4.28;;;18.50;73.90;;;;;;4158209;28;20029;-60
2021/04/01 11:04:23;;;;;;;9.02;5.32;;;18.50;74.00;;;;;;4156965;28;20374;-60
2021/04/01 11:06:28;;;;;;;11.13;4.30;;;18.40;74.80;;;;;;4157837;28;20103;-60
2021/04/01 11:08:39;;;;;;;11.52;6.22;;;18.50;74.20;;;;;;4158079;28;20045;-61
2021/04/01 11:10:42;;;;;;;10.63;4.45;;;18.60;73.80;;;;;;4158338;28;20551;-60
2021/04/01 11:12:52;;;;;;;6.20;3.65;;;18.80;73.70;;;;;;4157129;28;20075;-60
2021/04/01 11:15:02;;;;;;;7.22;4.50;;;18.90;73.30;;;;;;4158406;28;20134;-60
2021/04/01 11:17:08;;;;;;;6.43;4.20;;;19.10;72.50;;;;;;4157337;28;20033;-60
2021/04/01 11:19:14;;;;;;;7.05;4.53;;;19.10;72.50;;;;;;4157641;28;20433;-61
2021/04/01 11:21:19;;;;;;;7.35;4.30;;;19.20;72.60;;;;;;4157278;28;20481;-60
2021/04/01 11:23:25;;;;;;;7.10;4.20;;;19.40;72.50;;;;;;4158118;28;20136;-60
2021/04/01 11:25:28;;;;;;;8.27;3.67;;;19.70;72.00;;;;;;4154897;28;20037;-57
2021/04/01 11:27:30;;;;;;;9.32;4.80;;;20.00;71.50;;;;;;4157275;28;20054;-61
2021/04/01 11:29:32;;;;;;;6.28;4.50;;;20.10;70.30;;;;;;4158188;28;20453;-59
2021/04/01 11:31:33;;;;;;;7.40;4.60;;;19.90;70.30;;;;;;4155523;28;20489;-54
2021/04/01 11:33:37;;;;;;;9.18;4.30;;;19.80;70.50;;;;;;4158633;28;20064;-56
2021/04/01 11:35:41;;;;;;;7.78;4.70;;;19.60;70.50;;;;;;4157641;28;20821;-56
2021/04/01 11:37:48;;;;;;;8.30;5.57;;;19.60;70.90;;;;;;4156645;28;20836;-59
2021/04/01 11:39:55;;;;;;;7.07;4.80;;;19.50;70.90;;;;;;4156871;28;20452;-56
2021/04/01 11:41:57;;;;;;;6.80;4.93;;;19.30;71.10;;;;;;4158854;28;20103;-58
2021/04/01 11:43:59;;;;;;;10.27;5.78;;;19.20;71.50;;;;;;4156030;28;20452;-57
2021/04/01 11:46:19;;;;;;;11.35;5.43;;;19.20;71.80;;;;;;4157833;28;20042;-54
2021/04/01 11:48:21;;;;;;;8.45;5.40;;;19.10;71.40;;;;;;4156586;28;20045;-60
2021/04/01 11:50:23;;;;;;;8.85;5.28;;;19.10;71.80;;;;;;4157788;28;20111;-56
2021/04/01 11:52:24;;;;;;;7.50;4.75;;;19.20;71.80;;;;;;4156404;28;20070;-59
2021/04/01 11:54:25;;;;;;;9.38;5.50;;;19.40;71.70;;;;;;4157022;28;20135;-59
2021/04/01 11:56:38;;;;;;;8.30;4.57;;;19.50;71.30;;;;;;4154948;28;20103;-59
2021/04/01 11:58:40;;;;;;;7.85;5.18;;;19.70;71.40;;;;;;4156572;28;20029;-57
2021/04/01 12:00:42;;;;;;;8.43;5.10;;;19.80;70.50;;;;;;4152576;28;20042;-54
2021/04/01 12:05:01;;;;;;;9.43;4.53;;;20.00;69.60;;;;;;4153350;28;20092;-66
2021/04/01 12:07:05;;;;;;;5.82;3.90;;;20.10;69.90;;;;;;4155352;28;20037;-61
2021/04/01 12:09:09;;;;;;;7.55;5.07;;;20.20;69.70;;;;;;4156849;28;20150;-61
2021/04/01 12:11:10;;;;;;;19.05;7.20;;;20.30;68.70;;;;;;4157088;28;20041;-62
2021/04/01 12:13:11;;;;;;;9.25;5.47;;;20.40;69.10;;;;;;4157023;28;20080;-65
2021/04/01 12:15:13;;;;;;;15.88;5.65;;;20.30;69.10;;;;;;4156616;28;20053;-60
2021/04/01 12:17:14;;;;;;;9.13;6.28;;;20.30;69.10;;;;;;4154716;28;20417;-62
2021/04/01 12:19:15;;;;;;;19.65;7.15;;;20.30;69.00;;;;;;4156080;28;20091;-59
2021/04/01 12:21:18;;;;;;;27.27;8.60;;;20.20;68.80;;;;;;4157730;28;20041;-61
2021/04/01 12:23:21;;;;;;;25.58;7.10;;;20.10;68.90;;;;;;4156176;28;20079;-61
2021/04/01 12:25:25;;;;;;;14.48;6.38;;;20.00;68.90;;;;;;4157180;28;20037;-60
2021/04/01 12:27:29;;;;;;;11.70;6.70;;;20.10;69.00;;;;;;4155924;28;20589;-63